Time;durP1;ratioP1;P1;durP2;ratioP2;P2;SDS_P1;SDS_P2;PMS_P1;PMS_P2;Temp;Humidity;BMP_temperature;BMP_pressure;BME280_temperature;BME280_humidity;BME280_pressure;Samples;Min_cycle;Max_cycle;Signal;HPM_P1;HPM_P2
2022/03/16 00:01:04;;;;;;;9.85;0.98;;;;;;;;;;5001923;28;20378;-80
2022/03/16 00:03:30;;;;;;;4.97;0.75;;;;;;;;;;4985254;28;20034;-79
2022/03/16 00:05:55;;;;;;;7.57;1.13;;;;;;;;;;4999819;28;20072;-79
2022/03/16 00:08:21;;;;;;;6.90;0.95;;;;;;;;;;4997423;28;20674;-80
2022/03/16 00:10:46;;;;;;;5.35;1.48;;;;;;;;;;5000966;28;20041;-79
2022/03/16 00:13:12;;;;;;;4.35;0.80;;;;;;;;;;4979451;28;20046;-79
2022/03/16 00:15:37;;;;;;;6.30;1.30;;;;;;;;;;4995367;28;20038;-81
2022/03/16 00:18:03;;;;;;;7.10;1.08;;;;;;;;;;4997171;28;20044;-79
2022/03/16 00:20:29;;;;;;;7.25;1.27;;;;;;;;;;4999124;28;20068;-79
2022/03/16 00:22:54;;;;;;;4.93;1.02;;;;;;;;;;5002240;28;20029;-78
2022/03/16 00:25:20;;;;;;;11.70;1.50;;;;;;;;;;4976829;28;20026;-79
2022/03/16 00:27:45;;;;;;;6.43;1.30;;;;;;;;;;4999430;28;20156;-80
2022/03/16 00:30:11;;;;;;;7.22;2.40;;;;;;;;;;4999064;28;20044;-79
2022/03/16 00:32:37;;;;;;;6.47;2.08;;;;;;;;;;4998511;28;20040;-80
2022/03/16 00:35:03;;;;;;;10.70;2.10;;;;;;;;;;4982019;28;20037;-79
2022/03/16 00:37:29;;;;;;;6.40;1.63;;;;;;;;;;4984298;28;20115;-80
2022/03/16 00:39:54;;;;;;;9.18;2.60;;;;;;;;;;4998564;28;20037;-80
2022/03/16 00:42:20;;;;;;;2.90;1.70;;;;;;;;;;4999679;28;20570;-80
2022/03/16 00:44:45;;;;;;;5.13;2.45;;;;;;;;;;5001173;28;20037;-80
2022/03/16 00:47:11;;;;;;;12.65;3.08;;;;;;;;;;5000666;28;20183;-80
2022/03/16 00:49:36;;;;;;;7.85;2.83;;;;;;;;;;4982350;28;20042;-81
2022/03/16 00:52:03;;;;;;;9.23;3.55;;;;;;;;;;4964969;28;20042;-81
2022/03/16 00:54:30;;;;;;;12.13;3.30;;;;;;;;;;5000817;28;20048;-81
2022/03/16 00:56:55;;;;;;;12.55;3.42;;;;;;;;;;4997712;28;20033;-79
2022/03/16 00:59:21;;;;;;;12.35;3.60;;;;;;;;;;4991098;28;20141;-82
2022/03/16 01:01:46;;;;;;;7.82;3.42;;;;;;;;;;5002163;28;20038;-79
2022/03/16 01:04:12;;;;;;;7.35;3.03;;;;;;;;;;4977682;28;20034;-80
2022/03/16 01:06:37;;;;;;;6.28;2.92;;;;;;;;;;5004273;28;20038;-79
2022/03/16 01:09:03;;;;;;;10.10;3.28;;;;;;;;;;4980030;28;20057;-78
2022/03/16 01:11:28;;;;;;;5.53;2.65;;;;;;;;;;5004171;28;20412;-78
2022/03/16 01:13:54;;;;;;;8.75;3.50;;;;;;;;;;4996648;28;20048;-79
2022/03/16 01:16:19;;;;;;;8.77;3.45;;;;;;;;;;4998207;28;20038;-79
2022/03/16 01:18:45;;;;;;;11.57;3.53;;;;;;;;;;4971152;28;20069;-79
2022/03/16 01:21:10;;;;;;;9.18;2.97;;;;;;;;;;4990750;28;20073;-80
2022/03/16 01:23:37;;;;;;;5.93;2.38;;;;;;;;;;5001280;28;20118;-79
2022/03/16 01:26:04;;;;;;;5.82;2.28;;;;;;;;;;4990460;28;21044;-80
2022/03/16 01:28:30;;;;;;;4.82;2.72;;;;;;;;;;5000563;28;20060;-80
2022/03/16 01:30:57;;;;;;;4.80;1.92;;;;;;;;;;5000089;28;20061;-79
2022/03/16 01:33:23;;;;;;;3.38;1.23;;;;;;;;;;5000621;28;20030;-80
2022/03/16 01:35:49;;;;;;;4.85;1.50;;;;;;;;;;5006277;28;20041;-80
2022/03/16 01:38:14;;;;;;;4.60;1.20;;;;;;;;;;4986374;28;20068;-80
2022/03/16 01:40:40;;;;;;;6.65;1.40;;;;;;;;;;4985872;28;20394;-80
2022/03/16 01:43:06;;;;;;;8.45;1.33;;;;;;;;;;5001651;28;20045;-80
2022/03/16 01:45:31;;;;;;;5.07;0.93;;;;;;;;;;4987275;28;20719;-80
2022/03/16 01:47:57;;;;;;;5.78;1.40;;;;;;;;;;5002591;28;20486;-79
2022/03/16 01:50:22;;;;;;;2.20;1.05;;;;;;;;;;4986386;28;20096;-79
2022/03/16 01:52:48;;;;;;;3.78;1.25;;;;;;;;;;4984436;28;20041;-79
2022/03/16 01:55:14;;;;;;;2.85;1.13;;;;;;;;;;4999619;28;20532;-79
2022/03/16 01:57:42;;;;;;;2.28;1.00;;;;;;;;;;4984496;28;20038;-79
2022/03/16 02:00:08;;;;;;;5.00;1.10;;;;;;;;;;4983138;28;20651;-78
2022/03/16 02:02:33;;;;;;;2.50;1.05;;;;;;;;;;4999517;28;20087;-79
2022/03/16 02:04:59;;;;;;;4.35;1.00;;;;;;;;;;4984903;28;20033;-79
2022/03/16 02:07:25;;;;;;;2.17;0.90;;;;;;;;;;4984688;28;20030;-80
2022/03/16 02:09:52;;;;;;;2.70;1.08;;;;;;;;;;4984468;28;20052;-79
2022/03/16 02:12:17;;;;;;;4.22;1.20;;;;;;;;;;4998827;28;20026;-79
2022/03/16 02:14:43;;;;;;;4.75;1.30;;;;;;;;;;4989580;28;20539;-79
2022/03/16 02:17:08;;;;;;;4.70;1.20;;;;;;;;;;4984490;28;20564;-79
2022/03/16 02:19:34;;;;;;;2.90;1.40;;;;;;;;;;5006329;28;20033;-80
2022/03/16 02:22:03;;;;;;;6.78;1.92;;;;;;;;;;4967010;28;20030;-80
2022/03/16 02:24:31;;;;;;;6.05;1.70;;;;;;;;;;5004815;28;20068;-79
2022/03/16 02:26:58;;;;;;;4.88;1.55;;;;;;;;;;5002343;28;20034;-79
2022/03/16 02:29:23;;;;;;;4.35;1.42;;;;;;;;;;4979289;28;20739;-79
2022/03/16 02:31:49;;;;;;;5.03;1.60;;;;;;;;;;5001785;28;20034;-79
2022/03/16 02:34:14;;;;;;;4.80;1.40;;;;;;;;;;4972317;28;20037;-80
2022/03/16 02:36:40;;;;;;;7.40;1.80;;;;;;;;;;5002367;28;20034;-80
2022/03/16 02:39:06;;;;;;;7.10;1.60;;;;;;;;;;4984919;28;20125;-80
2022/03/16 02:41:32;;;;;;;5.70;1.50;;;;;;;;;;5003731;28;20064;-80
2022/03/16 02:43:57;;;;;;;5.97;1.52;;;;;;;;;;4983986;28;20065;-81
2022/03/16 02:46:23;;;;;;;2.08;1.38;;;;;;;;;;4995443;28;20033;-80
2022/03/16 02:48:49;;;;;;;5.53;1.48;;;;;;;;;;5004803;28;20462;-79
2022/03/16 02:51:14;;;;;;;3.55;1.40;;;;;;;;;;5000691;28;20032;-80
2022/03/16 02:53:40;;;;;;;2.13;1.35;;;;;;;;;;4996840;28;20042;-81
2022/03/16 02:56:07;;;;;;;5.15;1.75;;;;;;;;;;5005711;28;20434;-79
2022/03/16 02:58:32;;;;;;;7.93;1.90;;;;;;;;;;4985034;28;20030;-79
2022/03/16 03:00:58;;;;;;;4.65;1.85;;;;;;;;;;5002480;28;20034;-81
2022/03/16 03:03:23;;;;;;;4.45;1.63;;;;;;;;;;4981133;28;20065;-80
2022/03/16 03:05:49;;;;;;;6.13;2.13;;;;;;;;;;5000908;28;20077;-79
2022/03/16 03:08:14;;;;;;;3.92;2.00;;;;;;;;;;4998292;28;20037;-79
2022/03/16 03:10:40;;;;;;;6.72;2.20;;;;;;;;;;4985764;28;20061;-79
2022/03/16 03:13:06;;;;;;;6.28;2.30;;;;;;;;;;5001692;28;20049;-79
2022/03/16 03:15:31;;;;;;;5.68;2.33;;;;;;;;;;4993984;28;20040;-79
2022/03/16 03:17:57;;;;;;;4.72;2.63;;;;;;;;;;4982335;28;20029;-79
2022/03/16 03:20:25;;;;;;;5.35;3.03;;;;;;;;;;5003760;28;20038;-79
2022/03/16 03:22:51;;;;;;;7.03;2.83;;;;;;;;;;5000143;28;20061;-79
2022/03/16 03:25:16;;;;;;;6.45;2.72;;;;;;;;;;4983643;28;21230;-79
2022/03/16 03:27:42;;;;;;;6.20;2.72;;;;;;;;;;4985025;28;20097;-79
2022/03/16 03:30:09;;;;;;;6.70;2.67;;;;;;;;;;4998370;28;20034;-79
2022/03/16 03:32:35;;;;;;;8.55;4.03;;;;;;;;;;4999131;28;20022;-78
2022/03/16 03:35:00;;;;;;;9.15;4.25;;;;;;;;;;4985693;28;20026;-79
2022/03/16 03:37:28;;;;;;;9.68;4.90;;;;;;;;;;4982397;28;20084;-78
2022/03/16 03:39:54;;;;;;;8.20;4.25;;;;;;;;;;4986761;28;20070;-80
2022/03/16 03:42:19;;;;;;;9.85;5.18;;;;;;;;;;4997358;28;20068;-79
2022/03/16 03:44:45;;;;;;;10.20;5.20;;;;;;;;;;4982134;28;20443;-79
2022/03/16 03:47:10;;;;;;;7.72;4.88;;;;;;;;;;5000037;28;20452;-79
2022/03/16 03:49:40;;;;;;;10.05;5.28;;;;;;;;;;4982608;28;20108;-80
2022/03/16 03:52:07;;;;;;;9.30;5.25;;;;;;;;;;4995522;28;20442;-78
2022/03/16 03:54:33;;;;;;;12.07;6.05;;;;;;;;;;5001709;28;20033;-80
2022/03/16 03:56:58;;;;;;;9.52;5.78;;;;;;;;;;4988323;28;20176;-79
2022/03/16 03:59:24;;;;;;;11.27;5.35;;;;;;;;;;4977332;28;20116;-79
2022/03/16 04:01:51;;;;;;;10.45;4.80;;;;;;;;;;4994325;28;20033;-79
2022/03/16 04:04:17;;;;;;;17.20;5.45;;;;;;;;;;5001039;28;20095;-79
2022/03/16 04:06:42;;;;;;;16.27;5.82;;;;;;;;;;4985181;28;20501;-79
2022/03/16 04:09:08;;;;;;;11.45;5.40;;;;;;;;;;4997056;28;20156;-79
2022/03/16 04:11:34;;;;;;;11.70;4.93;;;;;;;;;;4981686;28;20034;-79
2022/03/16 04:14:00;;;;;;;9.27;4.20;;;;;;;;;;4981189;28;20038;-78
2022/03/16 04:16:25;;;;;;;10.88;4.63;;;;;;;;;;4985387;28;20067;-80
2022/03/16 04:18:51;;;;;;;10.75;4.85;;;;;;;;;;5001278;28;20569;-79
2022/03/16 04:21:17;;;;;;;15.50;5.07;;;;;;;;;;4998481;28;20041;-78
2022/03/16 04:23:42;;;;;;;11.05;4.35;;;;;;;;;;4999057;28;20064;-79
2022/03/16 04:26:08;;;;;;;12.40;5.03;;;;;;;;;;4996979;28;20105;-79
2022/03/16 04:28:34;;;;;;;12.82;5.13;;;;;;;;;;4984254;28;20099;-78
2022/03/16 04:31:00;;;;;;;10.05;4.00;;;;;;;;;;4982806;28;20037;-78
2022/03/16 04:33:29;;;;;;;18.20;4.78;;;;;;;;;;4995601;28;21195;-79
2022/03/16 04:35:55;;;;;;;10.15;4.35;;;;;;;;;;4968354;28;20082;-79
2022/03/16 04:38:20;;;;;;;9.90;4.97;;;;;;;;;;4985232;28;20065;-79
2022/03/16 04:40:46;;;;;;;6.53;3.75;;;;;;;;;;4997634;28;20040;-79
2022/03/16 04:43:12;;;;;;;8.10;3.80;;;;;;;;;;5002676;28;20511;-80
2022/03/16 04:45:39;;;;;;;16.23;3.80;;;;;;;;;;5005100;28;20029;-79
2022/03/16 04:48:09;;;;;;;6.90;3.05;;;;;;;;;;5002132;28;20088;-79
2022/03/16 04:50:38;;;;;;;13.80;3.90;;;;;;;;;;5003978;28;20053;-77
2022/03/16 04:53:04;;;;;;;11.90;3.30;;;;;;;;;;4997672;28;20123;-78
2022/03/16 04:55:30;;;;;;;11.05;3.50;;;;;;;;;;5001147;28;20049;-78
2022/03/16 04:57:55;;;;;;;10.90;3.60;;;;;;;;;;5002703;28;20069;-80
2022/03/16 05:00:21;;;;;;;5.10;2.70;;;;;;;;;;5004036;28;20476;-79
2022/03/16 05:02:47;;;;;;;8.52;3.10;;;;;;;;;;4997968;28;20048;-79
2022/03/16 05:05:13;;;;;;;9.48;3.22;;;;;;;;;;5005148;28;20513;-79
2022/03/16 05:07:39;;;;;;;7.15;3.65;;;;;;;;;;4985564;28;20052;-80
2022/03/16 05:10:06;;;;;;;15.70;4.18;;;;;;;;;;5007549;28;20389;-79
2022/03/16 05:12:39;;;;;;;15.10;4.35;;;;;;;;;;4995631;28;20023;-80
2022/03/16 05:15:07;;;;;;;9.27;3.28;;;;;;;;;;5003050;28;20026;-79
2022/03/16 05:17:32;;;;;;;16.13;4.25;;;;;;;;;;5022432;28;20453;-79
2022/03/16 05:19:58;;;;;;;11.55;3.65;;;;;;;;;;5005190;28;20033;-78
2022/03/16 05:22:23;;;;;;;10.52;3.53;;;;;;;;;;4982913;28;20043;-79
2022/03/16 05:24:49;;;;;;;6.05;3.17;;;;;;;;;;5002762;28;20077;-80
2022/03/16 05:27:14;;;;;;;10.20;3.42;;;;;;;;;;5002593;28;20033;-79
2022/03/16 05:29:40;;;;;;;9.95;3.63;;;;;;;;;;4987596;28;20165;-79
2022/03/16 05:32:06;;;;;;;6.95;3.03;;;;;;;;;;5002497;28;20038;-79
2022/03/16 05:34:31;;;;;;;11.20;4.88;;;;;;;;;;5000191;28;20029;-79
2022/03/16 05:36:57;;;;;;;9.32;4.30;;;;;;;;;;5003922;28;20029;-79
2022/03/16 05:39:22;;;;;;;10.32;4.53;;;;;;;;;;4970291;28;20084;-79
2022/03/16 05:41:48;;;;;;;13.02;4.80;;;;;;;;;;4975032;28;20033;-78
2022/03/16 05:44:13;;;;;;;11.52;5.30;;;;;;;;;;5001247;28;20038;-78
2022/03/16 05:46:39;;;;;;;18.52;5.80;;;;;;;;;;5003472;28;20137;-78
2022/03/16 05:49:04;;;;;;;12.70;4.70;;;;;;;;;;5004871;28;20054;-77
2022/03/16 05:51:30;;;;;;;11.70;4.95;;;;;;;;;;4965634;28;23711;-78
2022/03/16 05:53:55;;;;;;;12.15;5.15;;;;;;;;;;4985988;28;20049;-78
2022/03/16 05:56:21;;;;;;;10.07;5.05;;;;;;;;;;4980390;28;20098;-78
2022/03/16 05:58:46;;;;;;;12.50;5.10;;;;;;;;;;5003155;28;20062;-78
2022/03/16 06:01:11;;;;;;;17.42;5.35;;;;;;;;;;4984702;28;20041;-78
2022/03/16 06:03:37;;;;;;;13.32;5.22;;;;;;;;;;5001605;28;20025;-78
2022/03/16 06:06:04;;;;;;;15.43;5.90;;;;;;;;;;5001558;28;20022;-79
2022/03/16 06:08:29;;;;;;;11.63;5.70;;;;;;;;;;4972155;28;20064;-79
2022/03/16 06:10:55;;;;;;;12.00;5.68;;;;;;;;;;4984196;28;20030;-79
2022/03/16 06:13:21;;;;;;;11.57;4.97;;;;;;;;;;4985529;28;20058;-78
2022/03/16 06:15:47;;;;;;;10.38;5.28;;;;;;;;;;5017584;28;20076;-77
2022/03/16 06:18:12;;;;;;;13.98;5.38;;;;;;;;;;5008599;28;20034;-79
2022/03/16 06:20:38;;;;;;;16.27;5.65;;;;;;;;;;5001477;28;20042;-78
2022/03/16 06:23:05;;;;;;;13.52;5.75;;;;;;;;;;4997554;28;20035;-78
2022/03/16 06:25:33;;;;;;;11.50;5.18;;;;;;;;;;4999032;28;20450;-79
2022/03/16 06:27:58;;;;;;;15.30;6.38;;;;;;;;;;5003241;28;20026;-77
2022/03/16 06:30:25;;;;;;;12.93;5.32;;;;;;;;;;4982476;28;20045;-78
2022/03/16 06:32:51;;;;;;;10.93;5.57;;;;;;;;;;4971799;28;20113;-78
2022/03/16 06:35:16;;;;;;;14.40;5.53;;;;;;;;;;5003461;28;20113;-78
2022/03/16 06:37:42;;;;;;;16.02;5.20;;;;;;;;;;4981409;28;20482;-78
2022/03/16 06:40:09;;;;;;;10.98;4.82;;;;;;;;;;4999066;28;20585;-79
2022/03/16 06:42:44;;;;;;;12.25;4.80;;;;;;;;;;4985792;28;20494;-77
2022/03/16 06:45:10;;;;;;;14.65;5.28;;;;;;;;;;4998260;28;20037;-77
2022/03/16 06:47:38;;;;;;;16.55;6.40;;;;;;;;;;4996667;28;20033;-77
2022/03/16 06:50:05;;;;;;;10.68;4.93;;;;;;;;;;5004831;28;20197;-78
2022/03/16 06:52:30;;;;;;;11.05;5.35;;;;;;;;;;4996740;28;20037;-80
2022/03/16 06:54:56;;;;;;;13.90;5.35;;;;;;;;;;4984727;28;20048;-78
2022/03/16 06:57:21;;;;;;;14.43;5.18;;;;;;;;;;4985441;28;20060;-78
2022/03/16 06:59:47;;;;;;;19.10;5.05;;;;;;;;;;4986323;28;20032;-78
2022/03/16 07:02:12;;;;;;;18.05;5.38;;;;;;;;;;4982492;28;20068;-78
2022/03/16 07:04:38;;;;;;;12.35;5.25;;;;;;;;;;4999462;28;20092;-78
2022/03/16 07:07:03;;;;;;;16.77;5.85;;;;;;;;;;4970430;28;20038;-78
2022/03/16 07:09:32;;;;;;;16.88;6.75;;;;;;;;;;4986544;28;20141;-78
2022/03/16 07:11:59;;;;;;;13.63;5.03;;;;;;;;;;4999698;28;20050;-78
2022/03/16 07:14:31;;;;;;;17.70;6.15;;;;;;;;;;4984536;28;20030;-78
2022/03/16 07:17:00;;;;;;;15.40;7.13;;;;;;;;;;4969017;28;21144;-79
2022/03/16 07:19:26;;;;;;;17.58;5.88;;;;;;;;;;4994273;28;20038;-79
2022/03/16 07:21:52;;;;;;;16.27;5.50;;;;;;;;;;4967061;28;20481;-78
2022/03/16 07:24:17;;;;;;;14.13;4.97;;;;;;;;;;5000582;28;20234;-79
2022/03/16 07:26:43;;;;;;;19.98;6.53;;;;;;;;;;4999291;28;20068;-78
2022/03/16 07:29:09;;;;;;;16.60;5.95;;;;;;;;;;5018231;28;20038;-78
2022/03/16 07:31:34;;;;;;;15.57;5.35;;;;;;;;;;5000856;28;20371;-78
2022/03/16 07:34:01;;;;;;;11.48;4.70;;;;;;;;;;4968094;28;20036;-78
2022/03/16 07:36:27;;;;;;;11.73;4.60;;;;;;;;;;4998808;28;20034;-80
2022/03/16 07:38:53;;;;;;;10.75;5.18;;;;;;;;;;4998075;28;20040;-78
2022/03/16 07:41:22;;;;;;;16.25;4.60;;;;;;;;;;5002347;28;20513;-78
2022/03/16 07:43:47;;;;;;;11.93;5.30;;;;;;;;;;4998714;28;20353;-78
2022/03/16 07:46:13;;;;;;;13.35;4.95;;;;;;;;;;4981534;28;20164;-79
2022/03/16 07:48:43;;;;;;;13.73;5.32;;;;;;;;;;4981593;28;20135;-78
2022/03/16 07:51:09;;;;;;;11.30;4.22;;;;;;;;;;4976150;28;20034;-80
2022/03/16 07:53:38;;;;;;;14.80;5.00;;;;;;;;;;4982946;28;20422;-80
2022/03/16 07:56:04;;;;;;;10.73;4.70;;;;;;;;;;5001313;28;20030;-79
2022/03/16 07:58:29;;;;;;;16.35;5.68;;;;;;;;;;4982659;28;20094;-79
2022/03/16 08:00:55;;;;;;;15.60;4.80;;;;;;;;;;5002113;28;20605;-79
2022/03/16 08:03:20;;;;;;;18.00;6.18;;;;;;;;;;4967383;28;20171;-79
2022/03/16 08:05:47;;;;;;;20.63;5.43;;;;;;;;;;4998056;28;20037;-80
2022/03/16 08:08:13;;;;;;;16.95;5.55;;;;;;;;;;4981544;28;20037;-78
2022/03/16 08:10:39;;;;;;;15.98;5.22;;;;;;;;;;5000486;28;20030;-81
2022/03/16 08:13:07;;;;;;;15.13;5.18;;;;;;;;;;5001696;28;20036;-80
2022/03/16 08:15:33;;;;;;;12.07;5.07;;;;;;;;;;5000134;28;20026;-80
2022/03/16 08:18:18;;;;;;;18.40;4.90;;;;;;;;;;4986635;28;20042;-81
2022/03/16 08:20:44;;;;;;;12.00;5.03;;;;;;;;;;5004524;28;20046;-81
2022/03/16 08:23:10;;;;;;;10.38;4.30;;;;;;;;;;5019692;28;20030;-81
2022/03/16 08:25:35;;;;;;;15.43;4.55;;;;;;;;;;5002189;28;20045;-80
2022/03/16 08:28:01;;;;;;;15.55;5.10;;;;;;;;;;5002603;28;20038;-80
2022/03/16 08:30:27;;;;;;;11.65;4.28;;;;;;;;;;5001036;28;20061;-82
2022/03/16 08:32:52;;;;;;;14.70;4.63;;;;;;;;;;4998959;28;20037;-80
2022/03/16 08:35:18;;;;;;;11.57;4.30;;;;;;;;;;4999397;28;20706;-81
2022/03/16 08:37:43;;;;;;;11.90;3.70;;;;;;;;;;4969052;28;20140;-79
2022/03/16 08:40:09;;;;;;;14.57;4.80;;;;;;;;;;4969661;28;20555;-80
2022/03/16 08:42:35;;;;;;;16.63;5.65;;;;;;;;;;5001798;28;20037;-81
2022/03/16 08:45:01;;;;;;;23.45;5.30;;;;;;;;;;4986168;28;20423;-81
2022/03/16 08:47:26;;;;;;;10.80;4.68;;;;;;;;;;4986722;28;20021;-80
2022/03/16 08:49:55;;;;;;;25.70;5.03;;;;;;;;;;4985072;28;20549;-80
2022/03/16 08:52:23;;;;;;;14.98;4.45;;;;;;;;;;4983495;28;20134;-81
2022/03/16 08:54:50;;;;;;;10.68;5.10;;;;;;;;;;4985796;28;20034;-83
2022/03/16 08:57:16;;;;;;;13.57;5.80;;;;;;;;;;5005709;28;20034;-80
2022/03/16 08:59:41;;;;;;;16.88;5.15;;;;;;;;;;4982763;28;20036;-80
2022/03/16 09:02:07;;;;;;;14.43;4.43;;;;;;;;;;4979541;28;20083;-80
2022/03/16 09:04:34;;;;;;;17.10;4.43;;;;;;;;;;5014806;28;20045;-80
2022/03/16 09:07:00;;;;;;;14.07;4.47;;;;;;;;;;5003230;28;20056;-79
2022/03/16 09:09:26;;;;;;;12.05;3.20;;;;;;;;;;4998471;28;20696;-81
2022/03/16 09:11:52;;;;;;;11.60;3.45;;;;;;;;;;4995990;28;20026;-81
2022/03/16 09:14:17;;;;;;;13.35;3.75;;;;;;;;;;5001057;28;20167;-81
2022/03/16 09:16:47;;;;;;;8.07;3.50;;;;;;;;;;4983687;28;20037;-79
2022/03/16 09:19:20;;;;;;;8.77;3.38;;;;;;;;;;5002156;28;20041;-80
2022/03/16 09:21:47;;;;;;;25.20;3.75;;;;;;;;;;5003074;28;20117;-81
2022/03/16 09:24:13;;;;;;;12.57;4.28;;;;;;;;;;5002095;28;20172;-80
2022/03/16 09:26:39;;;;;;;17.75;4.35;;;;;;;;;;5000095;28;20495;-79
2022/03/16 09:29:07;;;;;;;16.35;4.68;;;;;;;;;;5006791;28;20056;-81
2022/03/16 09:31:34;;;;;;;8.60;3.33;;;;;;;;;;4992241;28;20041;-80
2022/03/16 09:34:00;;;;;;;11.70;3.53;;;;;;;;;;5004886;28;20065;-80
2022/03/16 09:36:25;;;;;;;10.15;3.40;;;;;;;;;;5004948;28;20062;-79
2022/03/16 09:38:51;;;;;;;10.02;3.50;;;;;;;;;;5003956;28;20501;-80
2022/03/16 09:41:17;;;;;;;9.55;3.40;;;;;;;;;;4989390;28;20058;-78
2022/03/16 09:43:44;;;;;;;8.82;3.55;;;;;;;;;;4992163;28;20513;-80
2022/03/16 09:46:12;;;;;;;9.25;3.25;;;;;;;;;;4996382;28;20030;-80
2022/03/16 09:48:41;;;;;;;8.90;2.78;;;;;;;;;;4999167;28;20030;-79
2022/03/16 09:51:11;;;;;;;13.13;2.65;;;;;;;;;;5002591;28;20060;-80
2022/03/16 09:53:38;;;;;;;10.90;3.20;;;;;;;;;;5003213;28;20032;-81
2022/03/16 09:56:09;;;;;;;13.02;3.53;;;;;;;;;;5017700;28;20040;-81
2022/03/16 09:58:34;;;;;;;7.85;3.03;;;;;;;;;;5009922;28;20549;-81
2022/03/16 10:01:00;;;;;;;9.40;2.88;;;;;;;;;;4991237;28;20036;-81
2022/03/16 10:03:29;;;;;;;12.75;2.78;;;;;;;;;;4991899;28;20037;-81
2022/03/16 10:05:58;;;;;;;10.90;3.25;;;;;;;;;;5002314;28;20029;-80
2022/03/16 10:08:30;;;;;;;11.20;2.80;;;;;;;;;;4985067;28;20060;-81
2022/03/16 10:13:57;;;;;;;8.35;3.10;;;;;;;;;;4998872;28;20037;-83
2022/03/16 10:16:23;;;;;;;9.25;2.38;;;;;;;;;;4979652;28;20065;-80
2022/03/16 10:18:57;;;;;;;7.88;2.17;;;;;;;;;;5014205;28;20107;-81
2022/03/16 10:21:24;;;;;;;5.20;1.95;;;;;;;;;;5001084;28;20373;-81
2022/03/16 10:23:50;;;;;;;7.05;2.25;;;;;;;;;;5003391;28;20109;-81
2022/03/16 10:26:18;;;;;;;8.75;2.78;;;;;;;;;;4984281;28;20032;-80
2022/03/16 10:28:48;;;;;;;9.98;2.58;;;;;;;;;;4983686;28;20542;-82
2022/03/16 10:31:16;;;;;;;9.27;2.45;;;;;;;;;;4994926;28;20625;-80
2022/03/16 10:33:47;;;;;;;9.82;2.92;;;;;;;;;;4999672;28;20034;-81
2022/03/16 10:36:16;;;;;;;10.00;3.13;;;;;;;;;;5002165;28;20044;-84
2022/03/16 10:38:59;;;;;;;8.73;3.30;;;;;;;;;;5014946;28;20497;-82
2022/03/16 10:47:24;;;;;;;5.45;1.55;;;;;;;;;;5000984;28;20037;-82
2022/03/16 10:50:04;;;;;;;4.68;1.33;;;;;;;;;;4996987;28;20496;-82
2022/03/16 10:52:32;;;;;;;8.15;2.58;;;;;;;;;;4999808;28;20044;-82
2022/03/16 10:54:57;;;;;;;8.80;2.30;;;;;;;;;;4988383;28;20439;-82
2022/03/16 10:57:24;;;;;;;7.68;2.38;;;;;;;;;;5002262;28;20065;-82
2022/03/16 10:59:52;;;;;;;12.93;2.20;;;;;;;;;;5004126;28;20087;-81
2022/03/16 11:02:19;;;;;;;8.45;1.95;;;;;;;;;;4998310;28;20032;-80
2022/03/16 11:04:47;;;;;;;4.40;2.00;;;;;;;;;;5001018;28;20096;-80
2022/03/16 11:07:14;;;;;;;5.15;1.80;;;;;;;;;;4983118;28;20572;-80
2022/03/16 11:09:41;;;;;;;9.95;1.70;;;;;;;;;;4993874;28;20116;-84
2022/03/16 11:14:53;;;;;;;19.25;2.00;;;;;;;;;;4997906;28;20032;-81
2022/03/16 11:17:19;;;;;;;8.55;1.67;;;;;;;;;;5012402;28;20032;-81
2022/03/16 11:19:47;;;;;;;7.47;1.55;;;;;;;;;;4968991;28;20033;-82
2022/03/16 11:24:15;;;;;;;7.63;1.52;;;;;;;;;;4985517;28;20704;-80
2022/03/16 11:25:39;;;;;;;9.52;1.17;;;;;;;;;;4983990;28;20605;-81
2022/03/16 11:28:10;;;;;;;11.18;1.67;;;;;;;;;;5015853;28;20563;-81
2022/03/16 11:30:37;;;;;;;11.13;2.10;;;;;;;;;;5002249;28;20029;-81
2022/03/16 11:33:02;;;;;;;11.82;2.40;;;;;;;;;;5007532;28;20645;-80
2022/03/16 11:35:33;;;;;;;8.48;1.25;;;;;;;;;;5002262;28;20033;-81
2022/03/16 11:38:02;;;;;;;5.85;0.88;;;;;;;;;;5000921;28;20037;-81
2022/03/16 11:40:29;;;;;;;8.60;1.00;;;;;;;;;;5013294;28;20595;-81
2022/03/16 11:43:04;;;;;;;6.50;0.93;;;;;;;;;;5000735;28;20512;-81
2022/03/16 11:45:50;;;;;;;11.23;1.50;;;;;;;;;;5007800;28;20053;-82
2022/03/16 11:48:37;;;;;;;10.65;1.35;;;;;;;;;;5003796;28;20071;-81
2022/03/16 11:51:08;;;;;;;12.65;0.90;;;;;;;;;;5007714;28;20400;-83
2022/03/16 11:53:46;;;;;;;3.15;0.43;;;;;;;;;;5001609;28;20068;-83
2022/03/16 11:56:21;;;;;;;7.93;0.70;;;;;;;;;;5004139;28;20105;-81
2022/03/16 11:58:48;;;;;;;19.45;1.48;;;;;;;;;;5011187;28;20091;-81
2022/03/16 12:01:30;;;;;;;5.70;0.77;;;;;;;;;;5003729;28;20052;-82
2022/03/16 12:04:22;;;;;;;13.00;1.17;;;;;;;;;;5023747;28;20021;-81
2022/03/16 12:06:52;;;;;;;5.65;1.17;;;;;;;;;;4999120;28;20446;-82
2022/03/16 12:09:21;;;;;;;6.78;0.70;;;;;;;;;;5012241;28;20037;-82
2022/03/16 12:15:24;;;;;;;8.90;1.33;;;;;;;;;;5025492;28;20820;-79
2022/03/16 12:17:55;;;;;;;5.15;0.95;;;;;;;;;;5029920;28;20033;-85
2022/03/16 12:20:53;;;;;;;7.72;1.20;;;;;;;;;;5017044;28;20029;-80
2022/03/16 12:23:49;;;;;;;8.02;1.50;;;;;;;;;;5010809;28;20034;-82
2022/03/16 12:26:20;;;;;;;6.57;0.85;;;;;;;;;;5018181;28;20052;-82
2022/03/16 12:28:59;;;;;;;15.15;1.50;;;;;;;;;;5002497;28;20025;-81
2022/03/16 12:31:30;;;;;;;6.25;1.40;;;;;;;;;;5039696;28;20044;-83
2022/03/16 12:33:57;;;;;;;16.90;3.53;;;;;;;;;;4996765;28;20440;-82
2022/03/16 12:36:33;;;;;;;8.85;0.60;;;;;;;;;;5004254;28;20037;-81
2022/03/16 12:39:07;;;;;;;4.72;0.93;;;;;;;;;;5010470;28;20055;-81
2022/03/16 12:44:19;;;;;;;6.43;1.50;;;;;;;;;;5007107;28;20067;-82
2022/03/16 12:46:56;;;;;;;5.50;1.38;;;;;;;;;;5025757;28;20036;-81
2022/03/16 12:49:22;;;;;;;5.80;0.98;;;;;;;;;;5008789;28;20054;-82
2022/03/16 12:51:49;;;;;;;8.68;1.05;;;;;;;;;;4999792;28;20558;-82
2022/03/16 12:54:21;;;;;;;10.85;1.05;;;;;;;;;;5001564;28;20044;-81
2022/03/16 12:56:50;;;;;;;6.15;0.70;;;;;;;;;;5000863;28;20083;-81
2022/03/16 12:59:31;;;;;;;8.48;1.50;;;;;;;;;;4998620;28;20042;-81
2022/03/16 13:01:57;;;;;;;4.20;0.90;;;;;;;;;;5002477;28;20030;-81
2022/03/16 13:04:27;;;;;;;5.65;1.10;;;;;;;;;;5007610;28;20136;-85
2022/03/16 13:06:55;;;;;;;6.88;1.02;;;;;;;;;;4986354;28;20029;-81
2022/03/16 13:09:21;;;;;;;7.63;1.30;;;;;;;;;;5006850;28;20521;-82
2022/03/16 13:11:47;;;;;;;2.97;0.90;;;;;;;;;;5022423;28;20034;-84
2022/03/16 13:14:18;;;;;;;2.78;0.55;;;;;;;;;;4970948;28;20207;-83
2022/03/16 13:16:44;;;;;;;9.93;1.00;;;;;;;;;;5003688;28;20030;-82
2022/03/16 13:19:24;;;;;;;12.52;1.20;;;;;;;;;;5020375;28;20091;-81
2022/03/16 13:22:05;;;;;;;7.75;1.13;;;;;;;;;;4996305;28;20060;-81
2022/03/16 13:24:54;;;;;;;7.10;1.20;;;;;;;;;;4983238;28;20026;-82
2022/03/16 13:27:22;;;;;;;5.47;1.05;;;;;;;;;;5018403;28;20109;-82
2022/03/16 13:29:50;;;;;;;9.23;0.98;;;;;;;;;;5000217;28;20092;-83
2022/03/16 13:32:18;;;;;;;8.77;1.52;;;;;;;;;;4997486;28;20449;-84
2022/03/16 13:34:43;;;;;;;4.03;0.98;;;;;;;;;;5005396;28;20067;-82
2022/03/16 13:37:34;;;;;;;4.40;0.80;;;;;;;;;;4998639;28;20402;-81
2022/03/16 13:40:03;;;;;;;5.65;0.80;;;;;;;;;;5003205;28;20092;-83
2022/03/16 13:42:40;;;;;;;11.40;1.25;;;;;;;;;;5008094;28;20136;-83
2022/03/16 13:45:20;;;;;;;7.55;0.80;;;;;;;;;;4999655;28;20120;-80
2022/03/16 13:48:06;;;;;;;4.32;0.60;;;;;;;;;;4999975;28;20018;-83
2022/03/16 13:50:32;;;;;;;6.13;0.43;;;;;;;;;;5008296;28;20448;-80
2022/03/16 13:53:17;;;;;;;7.70;0.60;;;;;;;;;;5001452;28;20066;-82
2022/03/16 13:55:47;;;;;;;4.88;0.88;;;;;;;;;;5001470;28;20057;-82
2022/03/16 13:58:13;;;;;;;7.28;0.82;;;;;;;;;;5014824;28;20144;-79
2022/03/16 14:00:45;;;;;;;4.53;0.70;;;;;;;;;;5014305;28;20068;-83
2022/03/16 14:03:12;;;;;;;7.82;1.42;;;;;;;;;;5015671;28;20083;-83
2022/03/16 14:05:41;;;;;;;5.05;0.80;;;;;;;;;;4985292;28;20048;-81
2022/03/16 14:08:09;;;;;;;1.55;0.45;;;;;;;;;;5008880;28;20055;-82
2022/03/16 14:10:36;;;;;;;5.82;0.55;;;;;;;;;;5020083;28;20603;-81
2022/03/16 14:13:09;;;;;;;4.28;0.90;;;;;;;;;;5020017;28;20058;-83
2022/03/16 14:15:35;;;;;;;10.27;1.15;;;;;;;;;;5008249;28;20045;-82
2022/03/16 14:18:12;;;;;;;11.15;1.15;;;;;;;;;;4988848;28;20133;-83
2022/03/16 14:20:44;;;;;;;6.10;0.80;;;;;;;;;;5005570;28;20489;-82
2022/03/16 14:23:11;;;;;;;4.07;1.15;;;;;;;;;;5022483;28;20029;-82
2022/03/16 14:25:47;;;;;;;8.40;1.25;;;;;;;;;;5006629;28;20163;-86
2022/03/16 14:28:14;;;;;;;8.15;0.70;;;;;;;;;;4987854;28;20036;-82
2022/03/16 14:30:51;;;;;;;7.03;0.70;;;;;;;;;;5006865;28;20030;-85
2022/03/16 14:33:22;;;;;;;6.65;0.70;;;;;;;;;;5003134;28;20048;-82
2022/03/16 14:35:50;;;;;;;3.45;0.80;;;;;;;;;;5000595;28;20037;-82
2022/03/16 14:38:16;;;;;;;5.75;0.70;;;;;;;;;;5013333;28;20609;-82
2022/03/16 14:40:44;;;;;;;10.48;1.55;;;;;;;;;;5005173;28;20113;-83
2022/03/16 14:43:11;;;;;;;6.50;0.85;;;;;;;;;;5007487;28;20042;-83
2022/03/16 14:45:40;;;;;;;3.92;0.77;;;;;;;;;;5006209;28;20118;-82
2022/03/16 14:48:09;;;;;;;8.43;0.60;;;;;;;;;;5004279;28;20022;-86
2022/03/16 14:50:35;;;;;;;5.35;0.50;;;;;;;;;;4991599;28;20057;-83
2022/03/16 14:53:03;;;;;;;7.68;0.80;;;;;;;;;;4971978;28;20029;-84
2022/03/16 14:55:29;;;;;;;2.78;0.93;;;;;;;;;;5003732;28;20745;-83
2022/03/16 14:57:57;;;;;;;7.43;0.63;;;;;;;;;;4988881;28;20037;-84
2022/03/16 15:00:24;;;;;;;4.90;0.50;;;;;;;;;;5019200;28;20099;-85